Time;durP1;ratioP1;P1;durP2;ratioP2;P2;SDS_P1;SDS_P2;PMS_P1;PMS_P2;Temp;Humidity;BMP_temperature;BMP_pressure;BME280_temperature;BME280_humidity;BME280_pressure;Samples;Min_cycle;Max_cycle;Signal;HPM_P1;HPM_P2
2021/06/17 00:00:23;;;;;;;9.52;8.15;;;19.50;99.90;;;;;;5072948;28;20052;-68
2021/06/17 00:02:49;;;;;;;9.50;7.90;;;19.40;99.90;;;;;;5055556;28;20110;-68
2021/06/17 00:05:17;;;;;;;8.98;8.18;;;19.40;99.80;;;;;;5077991;28;20493;-68
2021/06/17 00:07:44;;;;;;;8.50;7.80;;;19.40;99.70;;;;;;5090523;28;20384;-68
2021/06/17 00:10:14;;;;;;;8.35;7.55;;;19.40;99.90;;;;;;5066785;28;20079;-68
2021/06/17 00:12:40;;;;;;;9.18;8.23;;;19.40;99.90;;;;;;5055778;28;20032;-67
2021/06/17 00:15:09;;;;;;;8.85;7.95;;;19.40;99.90;;;;;;5071186;28;20090;-67
2021/06/17 00:17:35;;;;;;;9.65;8.73;;;19.40;99.90;;;;;;5072678;28;20040;-68
2021/06/17 00:20:00;;;;;;;9.65;8.80;;;19.30;99.90;;;;;;5055665;28;20052;-68
2021/06/17 00:22:26;;;;;;;9.93;9.00;;;19.30;99.90;;;;;;5071593;28;20036;-68
2021/06/17 00:24:51;;;;;;;9.50;8.52;;;19.30;99.90;;;;;;5057914;28;20048;-68
2021/06/17 00:27:17;;;;;;;10.52;9.48;;;19.30;99.90;;;;;;5052776;28;20037;-68
2021/06/17 00:29:43;;;;;;;10.18;9.07;;;19.20;99.90;;;;;;5069519;28;20033;-68
2021/06/17 00:32:08;;;;;;;10.57;9.38;;;19.20;99.90;;;;;;5054841;28;20117;-68
2021/06/17 00:34:34;;;;;;;9.80;8.68;;;19.20;99.90;;;;;;5072224;28;20407;-68
2021/06/17 00:37:00;;;;;;;10.30;9.35;;;19.30;99.90;;;;;;5072544;28;20486;-68
2021/06/17 00:39:25;;;;;;;10.73;9.18;;;19.30;99.90;;;;;;5070730;28;20040;-68
2021/06/17 00:41:51;;;;;;;11.85;9.82;;;19.20;99.90;;;;;;5072380;28;20066;-68
2021/06/17 00:44:16;;;;;;;11.40;10.35;;;19.30;99.90;;;;;;5072480;28;20545;-68
2021/06/17 00:46:42;;;;;;;11.23;10.25;;;19.30;99.90;;;;;;5075641;28;20092;-68
2021/06/17 00:49:08;;;;;;;12.45;11.35;;;19.20;99.90;;;;;;5083119;28;20036;-68
2021/06/17 00:51:33;;;;;;;12.35;11.27;;;19.10;99.90;;;;;;5087269;28;20055;-68
2021/06/17 00:53:59;;;;;;;14.18;12.75;;;19.10;99.90;;;;;;5072115;28;20040;-68
2021/06/17 00:56:25;;;;;;;13.32;12.13;;;19.10;99.90;;;;;;5071022;28;20045;-68
2021/06/17 00:58:52;;;;;;;11.70;10.70;;;19.00;99.90;;;;;;5072231;28;20094;-68
2021/06/17 01:01:17;;;;;;;11.82;10.70;;;19.00;99.90;;;;;;5071825;28;20071;-68
2021/06/17 01:03:43;;;;;;;14.23;12.65;;;19.10;99.90;;;;;;5072041;28;20067;-68
2021/06/17 01:06:10;;;;;;;13.05;11.70;;;19.00;99.90;;;;;;5086098;28;20396;-68
2021/06/17 01:08:58;;;;;;;11.52;10.60;;;18.90;99.90;;;;;;5071453;28;20032;-68
2021/06/17 01:11:38;;;;;;;11.98;10.88;;;19.00;99.90;;;;;;5040554;28;20095;-68
2021/06/17 01:14:03;;;;;;;12.25;11.07;;;18.90;99.90;;;;;;5071105;28;20045;-68
2021/06/17 01:16:35;;;;;;;11.95;10.95;;;18.90;99.90;;;;;;5059485;28;20041;-68
2021/06/17 01:19:14;;;;;;;12.73;11.43;;;18.90;99.90;;;;;;5080405;28;20050;-67
2021/06/17 01:21:56;;;;;;;12.88;11.68;;;18.90;99.90;;;;;;5071769;28;20036;-67
2021/06/17 01:24:44;;;;;;;15.43;14.00;;;18.90;99.90;;;;;;5053746;28;20044;-68
2021/06/17 01:27:36;;;;;;;15.95;14.48;;;18.90;99.90;;;;;;5053324;28;20052;-68
2021/06/17 01:30:09;;;;;;;16.20;14.57;;;18.80;99.90;;;;;;5070036;28;20124;-68
2021/06/17 01:32:36;;;;;;;14.85;13.50;;;18.80;99.90;;;;;;5071885;28;20041;-68
2021/06/17 01:35:03;;;;;;;15.10;13.73;;;18.80;99.90;;;;;;5071446;28;20037;-68
2021/06/17 01:37:30;;;;;;;16.00;14.43;;;18.80;99.90;;;;;;5071186;28;20051;-68
2021/06/17 01:39:57;;;;;;;16.75;15.20;;;18.80;99.90;;;;;;5071382;28;20059;-68
2021/06/17 01:42:25;;;;;;;16.80;15.10;;;18.80;99.90;;;;;;5071410;28;20394;-67
2021/06/17 01:44:57;;;;;;;15.05;13.73;;;18.80;99.90;;;;;;5069992;28;20044;-67
2021/06/17 01:47:25;;;;;;;15.88;14.57;;;18.90;99.90;;;;;;5055380;28;20478;-68
2021/06/17 01:49:51;;;;;;;15.55;14.07;;;18.90;99.90;;;;;;5071045;28;20064;-68
2021/06/17 01:52:19;;;;;;;15.30;13.85;;;18.90;99.90;;;;;;5053082;28;20461;-68
2021/06/17 01:54:45;;;;;;;15.25;13.85;;;18.80;99.90;;;;;;5070887;28;20052;-68
2021/06/17 01:57:14;;;;;;;17.02;15.50;;;18.80;99.90;;;;;;5052736;28;20634;-68
2021/06/17 01:59:42;;;;;;;15.95;14.52;;;18.80;99.90;;;;;;5070787;28;20044;-67
2021/06/17 02:02:10;;;;;;;14.90;13.60;;;18.70;99.90;;;;;;5069190;28;20067;-67
2021/06/17 02:04:35;;;;;;;16.55;15.00;;;18.80;99.90;;;;;;5060828;28;20043;-68
2021/06/17 02:07:02;;;;;;;17.10;15.30;;;18.70;99.90;;;;;;5080387;28;20405;-67
2021/06/17 02:09:30;;;;;;;17.67;16.02;;;18.70;99.90;;;;;;5070560;28;20063;-68
2021/06/17 02:11:56;;;;;;;17.75;16.13;;;18.70;99.90;;;;;;5040999;28;20091;-68
2021/06/17 02:14:24;;;;;;;16.08;14.73;;;18.70;99.90;;;;;;5070458;28;20051;-68
2021/06/17 02:16:52;;;;;;;19.77;18.13;;;18.70;99.90;;;;;;5069033;28;20036;-67
2021/06/17 02:19:23;;;;;;;19.38;17.73;;;18.60;99.90;;;;;;5070388;28;20048;-68
2021/06/17 02:21:53;;;;;;;21.33;19.40;;;18.60;99.90;;;;;;5068895;28;20062;-68
2021/06/17 02:24:19;;;;;;;19.90;18.20;;;18.60;99.90;;;;;;5052779;28;20060;-68
2021/06/17 02:26:47;;;;;;;21.80;19.70;;;18.60;99.90;;;;;;5070227;28;20052;-68
2021/06/17 02:29:17;;;;;;;21.80;19.85;;;18.50;99.90;;;;;;5070603;28;20032;-68
2021/06/17 02:31:44;;;;;;;20.90;19.00;;;18.50;99.90;;;;;;5069638;28;20052;-68
2021/06/17 02:34:11;;;;;;;19.05;17.35;;;18.50;99.90;;;;;;5070489;28;20043;-68
2021/06/17 02:36:39;;;;;;;19.48;17.88;;;18.50;99.90;;;;;;5069728;28;20526;-68
2021/06/17 02:39:07;;;;;;;19.67;17.98;;;18.50;99.90;;;;;;5068889;28;20090;-68
2021/06/17 02:41:33;;;;;;;18.80;17.10;;;18.50;99.90;;;;;;5069656;28;20103;-68
2021/06/17 02:44:00;;;;;;;19.42;17.73;;;18.50;99.90;;;;;;5070197;28;20474;-68
2021/06/17 02:46:26;;;;;;;18.50;16.90;;;18.50;99.90;;;;;;5070274;28;20333;-68
2021/06/17 02:48:54;;;;;;;18.20;16.63;;;18.50;99.90;;;;;;5070191;28;20371;-68
2021/06/17 02:51:20;;;;;;;20.23;18.20;;;18.50;99.90;;;;;;5069794;28;20040;-68
2021/06/17 02:53:46;;;;;;;19.45;17.63;;;18.50;99.90;;;;;;5068806;28;20045;-68
2021/06/17 02:56:33;;;;;;;20.20;18.30;;;18.40;99.90;;;;;;5063615;28;20049;-68
2021/06/17 02:59:28;;;;;;;19.55;17.95;;;18.50;99.90;;;;;;5070339;28;20066;-68
2021/06/17 03:02:13;;;;;;;22.05;20.15;;;18.50;99.90;;;;;;5069474;28;20071;-68
2021/06/17 03:04:45;;;;;;;20.85;18.95;;;18.40;99.90;;;;;;5071482;28;20047;-68
2021/06/17 03:07:26;;;;;;;21.55;19.75;;;18.50;99.90;;;;;;5078977;28;20032;-68
2021/06/17 03:10:00;;;;;;;22.25;20.35;;;18.50;99.90;;;;;;5067329;28;20303;-67
2021/06/17 03:12:27;;;;;;;23.90;21.58;;;18.50;99.90;;;;;;5061817;28;20040;-68
2021/06/17 03:14:55;;;;;;;25.23;23.02;;;18.50;99.90;;;;;;5068409;28;20070;-68
2021/06/17 03:17:23;;;;;;;22.98;20.98;;;18.50;99.90;;;;;;5066776;28;20052;-68
2021/06/17 03:19:56;;;;;;;22.95;21.05;;;18.60;99.90;;;;;;5051977;28;20116;-68
2021/06/17 03:22:24;;;;;;;25.00;22.55;;;18.60;99.90;;;;;;5064249;28;20513;-67
2021/06/17 03:24:51;;;;;;;26.98;24.77;;;18.60;99.90;;;;;;5069717;28;20115;-67
2021/06/17 03:27:18;;;;;;;28.50;25.73;;;18.60;99.90;;;;;;5068049;28;20044;-67
2021/06/17 03:29:48;;;;;;;27.00;24.67;;;18.60;99.90;;;;;;5068435;28;20044;-67
2021/06/17 03:32:15;;;;;;;24.95;22.80;;;18.70;99.90;;;;;;5069275;28;20040;-68
2021/06/17 03:34:44;;;;;;;25.65;23.50;;;18.70;99.90;;;;;;5069705;28;20044;-68
2021/06/17 03:37:11;;;;;;;27.27;24.90;;;18.70;99.90;;;;;;5069223;28;20475;-68
2021/06/17 03:39:38;;;;;;;28.05;25.55;;;18.70;99.90;;;;;;5069634;28;20063;-67
2021/06/17 03:42:06;;;;;;;27.88;25.48;;;18.80;99.90;;;;;;5067940;28;20483;-67
2021/06/17 03:44:34;;;;;;;28.05;25.75;;;18.80;99.90;;;;;;5067975;28;20032;-67
2021/06/17 03:47:01;;;;;;;26.13;23.85;;;18.80;99.90;;;;;;5072140;28;20033;-68
2021/06/17 03:49:28;;;;;;;26.90;24.55;;;18.90;99.90;;;;;;5083082;28;20115;-68
2021/06/17 03:51:58;;;;;;;26.73;24.42;;;18.90;99.90;;;;;;5072534;28;20052;-68
2021/06/17 03:54:27;;;;;;;27.20;24.63;;;18.90;99.90;;;;;;5068062;28;20397;-68
2021/06/17 03:57:01;;;;;;;24.15;22.15;;;19.00;99.90;;;;;;5051257;28;20090;-68
2021/06/17 03:59:30;;;;;;;25.88;23.67;;;19.00;99.90;;;;;;5050195;28;20032;-67
2021/06/17 04:01:56;;;;;;;26.08;23.85;;;19.10;99.90;;;;;;5068812;28;20435;-68
2021/06/17 04:04:23;;;;;;;24.27;22.25;;;19.10;99.90;;;;;;5069308;28;20037;-68
2021/06/17 04:06:53;;;;;;;24.17;22.05;;;19.20;99.90;;;;;;5075492;28;20094;-68
2021/06/17 04:09:27;;;;;;;25.05;22.83;;;19.20;99.90;;;;;;5069401;28;20032;-68
2021/06/17 04:12:15;;;;;;;24.75;22.65;;;19.30;99.90;;;;;;5062339;28;20056;-68
2021/06/17 04:14:44;;;;;;;25.58;23.33;;;19.30;99.90;;;;;;5069267;28;20047;-68
2021/06/17 04:17:13;;;;;;;25.23;23.13;;;19.40;99.90;;;;;;5064414;28;20085;-68
2021/06/17 04:19:42;;;;;;;26.02;23.70;;;19.40;99.90;;;;;;5065480;28;20088;-68
2021/06/17 04:22:09;;;;;;;25.13;22.85;;;19.50;99.90;;;;;;5052629;28;20040;-68
2021/06/17 04:24:40;;;;;;;23.48;21.45;;;19.50;99.90;;;;;;5055057;28;20056;-68
2021/06/17 04:27:07;;;;;;;24.50;22.27;;;19.60;99.90;;;;;;5072466;28;20043;-67
2021/06/17 04:29:38;;;;;;;21.65;19.92;;;19.70;99.90;;;;;;5066845;28;20127;-68
2021/06/17 04:32:06;;;;;;;22.40;20.52;;;19.70;99.90;;;;;;5071119;28;20288;-67
2021/06/17 04:34:34;;;;;;;22.40;20.50;;;19.80;99.90;;;;;;5072490;28;20044;-67
2021/06/17 04:37:03;;;;;;;23.83;21.77;;;19.80;99.90;;;;;;5072165;28;20130;-68
2021/06/17 04:39:30;;;;;;;22.98;20.95;;;19.90;99.90;;;;;;5070202;28;20398;-68
2021/06/17 04:41:56;;;;;;;21.52;19.67;;;20.00;99.90;;;;;;5046766;28;20070;-68
2021/06/17 04:44:23;;;;;;;23.88;21.80;;;20.10;99.90;;;;;;5064492;28;20471;-68
2021/06/17 04:46:50;;;;;;;22.40;20.48;;;20.20;99.90;;;;;;5060504;28;20033;-67
2021/06/17 04:49:17;;;;;;;21.38;19.63;;;20.30;99.90;;;;;;5057906;28;20040;-67
2021/06/17 04:51:43;;;;;;;19.40;17.73;;;20.40;99.90;;;;;;5071733;28;20036;-67
2021/06/17 04:54:19;;;;;;;20.58;18.90;;;20.50;99.90;;;;;;5053914;28;20526;-67
2021/06/17 04:56:46;;;;;;;19.95;18.23;;;20.70;99.90;;;;;;5070786;28;20045;-68
2021/06/17 04:59:16;;;;;;;19.00;17.60;;;20.80;99.90;;;;;;5046888;28;20468;-68
2021/06/17 05:01:42;;;;;;;18.67;16.88;;;20.90;99.90;;;;;;5064092;28;20036;-68
2021/06/17 05:04:08;;;;;;;17.80;16.27;;;21.00;99.90;;;;;;5052003;28;20047;-68
2021/06/17 05:06:37;;;;;;;17.08;15.63;;;21.10;99.90;;;;;;5071815;28;20040;-67
2021/06/17 05:11:51;;;;;;;18.35;16.85;;;21.20;99.90;;;;;;5052145;28;20504;-71
2021/06/17 05:14:17;;;;;;;18.13;16.52;;;21.30;99.90;;;;;;5057254;28;20029;-70
2021/06/17 05:16:43;;;;;;;18.23;16.63;;;21.40;99.90;;;;;;5071920;28;20040;-70
2021/06/17 05:19:08;;;;;;;17.17;15.50;;;21.40;99.90;;;;;;5069875;28;20071;-70
2021/06/17 05:21:34;;;;;;;16.42;15.15;;;21.50;99.90;;;;;;5071660;28;20440;-70
2021/06/17 05:24:01;;;;;;;16.00;14.68;;;21.60;99.90;;;;;;5064768;28;20036;-70
2021/06/17 05:26:47;;;;;;;17.60;15.95;;;21.70;99.90;;;;;;5051455;28;20049;-71
2021/06/17 05:29:12;;;;;;;15.77;14.30;;;21.80;99.90;;;;;;5051453;28;20114;-71
2021/06/17 05:31:38;;;;;;;16.02;14.45;;;22.00;99.90;;;;;;5049315;28;20123;-71
2021/06/17 05:34:03;;;;;;;14.45;13.23;;;22.10;99.60;;;;;;5070439;28;20047;-71
2021/06/17 05:36:29;;;;;;;14.73;13.52;;;22.20;99.30;;;;;;5065806;28;20078;-71
2021/06/17 05:38:55;;;;;;;13.85;12.75;;;22.30;99.10;;;;;;5071084;28;20352;-71
2021/06/17 05:41:21;;;;;;;14.38;13.07;;;22.40;98.60;;;;;;5065326;28;20060;-72
2021/06/17 05:43:46;;;;;;;13.77;12.52;;;22.50;98.60;;;;;;5071256;28;20048;-72
2021/06/17 05:46:12;;;;;;;14.50;13.00;;;22.60;98.30;;;;;;5066281;28;20076;-71
2021/06/17 05:48:38;;;;;;;14.25;12.05;;;23.30;98.20;;;;;;5064690;28;20042;-71
2021/06/17 05:51:04;;;;;;;12.68;11.68;;;24.70;97.00;;;;;;5067826;28;20037;-73
2021/06/17 05:53:30;;;;;;;12.35;11.15;;;26.20;95.30;;;;;;5051124;28;20044;-73
2021/06/17 05:55:56;;;;;;;11.32;10.40;;;27.50;93.80;;;;;;5052299;28;20148;-73
2021/06/17 05:58:22;;;;;;;11.15;10.25;;;28.60;92.00;;;;;;5068986;28;20043;-73
2021/06/17 06:00:48;;;;;;;11.55;10.43;;;29.70;91.00;;;;;;5064427;28;20049;-74
2021/06/17 06:03:16;;;;;;;9.00;8.18;;;30.60;90.10;;;;;;5060519;28;20044;-74
2021/06/17 06:05:42;;;;;;;10.50;9.50;;;31.00;83.80;;;;;;5068130;28;20799;-74
2021/06/17 06:08:10;;;;;;;9.70;8.82;;;31.60;80.00;;;;;;5066959;28;20048;-72
2021/06/17 06:10:36;;;;;;;9.32;8.52;;;32.10;77.90;;;;;;5055491;28;20052;-72
2021/06/17 06:13:02;;;;;;;9.23;8.43;;;32.50;76.40;;;;;;5056133;28;20040;-72
2021/06/17 06:15:33;;;;;;;10.15;9.18;;;32.90;75.00;;;;;;5065747;28;20037;-73
2021/06/17 06:18:07;;;;;;;9.82;8.65;;;33.20;71.10;;;;;;5058376;28;20398;-72
2021/06/17 06:20:34;;;;;;;8.52;7.85;;;33.40;67.60;;;;;;5051240;28;20041;-72
2021/06/17 06:23:00;;;;;;;8.38;7.68;;;33.60;66.80;;;;;;5065464;28;20470;-72
2021/06/17 06:25:27;;;;;;;9.55;8.63;;;33.70;65.40;;;;;;5051059;28;20148;-73
2021/06/17 06:27:53;;;;;;;9.00;8.10;;;34.40;64.50;;;;;;5051101;28;20518;-73
2021/06/17 06:30:19;;;;;;;8.20;7.43;;;34.60;62.90;;;;;;5056659;28;20126;-73
2021/06/17 06:32:44;;;;;;;8.98;8.27;;;34.60;61.00;;;;;;5061650;28;20481;-72
2021/06/17 06:35:10;;;;;;;8.05;7.30;;;34.80;60.20;;;;;;5061774;28;20059;-72
2021/06/17 06:37:37;;;;;;;8.63;7.85;;;35.20;60.60;;;;;;5068810;28;20063;-72
2021/06/17 06:40:03;;;;;;;8.40;7.70;;;35.60;60.10;;;;;;5066554;28;20106;-72
2021/06/17 06:42:29;;;;;;;7.38;6.75;;;36.00;59.00;;;;;;5067649;28;20039;-72
2021/06/17 06:44:55;;;;;;;8.00;7.30;;;35.90;57.00;;;;;;5069191;28;20111;-74
2021/06/17 06:47:20;;;;;;;7.70;7.10;;;35.80;55.80;;;;;;5067735;28;20425;-73
2021/06/17 06:49:46;;;;;;;7.65;6.90;;;36.00;56.30;;;;;;5066513;28;20093;-73
2021/06/17 06:52:12;;;;;;;9.43;7.78;;;35.80;54.50;;;;;;5062737;28;20118;-73
2021/06/17 06:54:37;;;;;;;7.40;6.70;;;36.40;53.00;;;;;;5066596;28;20043;-73
2021/06/17 06:57:03;;;;;;;7.78;7.07;;;36.70;55.00;;;;;;5067429;28;20036;-73
2021/06/17 06:59:29;;;;;;;7.60;7.00;;;36.60;54.10;;;;;;5063859;28;20032;-73
2021/06/17 07:01:57;;;;;;;7.45;6.75;;;36.80;53.20;;;;;;5064990;28;20044;-70
2021/06/17 07:04:24;;;;;;;7.55;6.93;;;37.00;51.90;;;;;;5062770;28;20097;-70
2021/06/17 07:06:50;;;;;;;7.13;6.43;;;37.10;52.30;;;;;;5067288;28;20099;-70
2021/06/17 07:09:16;;;;;;;8.52;7.72;;;36.90;50.60;;;;;;5065015;28;20157;-70
2021/06/17 07:11:41;;;;;;;8.27;7.57;;;37.20;48.70;;;;;;5067220;28;20037;-70
2021/06/17 07:14:07;;;;;;;8.05;7.30;;;37.00;49.80;;;;;;5066040;28;20697;-70
2021/06/17 07:16:34;;;;;;;7.65;7.05;;;37.20;49.20;;;;;;5067268;28;20462;-73
2021/06/17 07:19:01;;;;;;;8.00;7.25;;;37.00;49.10;;;;;;5069683;28;20059;-73
2021/06/17 07:21:29;;;;;;;8.05;7.30;;;37.30;49.50;;;;;;5067060;28;20393;-73
2021/06/17 07:23:55;;;;;;;7.72;6.85;;;37.70;48.90;;;;;;5069027;28;20031;-73
2021/06/17 07:26:26;;;;;;;7.63;6.78;;;37.80;48.90;;;;;;5048962;28;20037;-73
2021/06/17 07:28:52;;;;;;;8.18;6.63;;;37.60;48.50;;;;;;5064642;28;20104;-73
2021/06/17 07:31:17;;;;;;;7.38;6.78;;;38.00;48.00;;;;;;5045369;28;20135;-73
2021/06/17 07:33:43;;;;;;;7.57;6.68;;;37.80;47.30;;;;;;5058647;28;20120;-74
2021/06/17 07:36:09;;;;;;;7.70;6.97;;;37.90;47.50;;;;;;5068855;28;20417;-74
2021/06/17 07:38:35;;;;;;;8.10;7.40;;;38.00;46.00;;;;;;5069284;28;20044;-74
2021/06/17 07:41:01;;;;;;;8.35;7.30;;;37.50;46.70;;;;;;5063141;28;20041;-74
2021/06/17 07:43:26;;;;;;;7.38;6.78;;;37.20;47.60;;;;;;5069406;28;20044;-74
2021/06/17 07:45:52;;;;;;;6.88;6.20;;;37.10;47.40;;;;;;5050735;28;20386;-73
2021/06/17 07:48:18;;;;;;;7.10;6.53;;;37.30;48.50;;;;;;5058274;28;20473;-72
2021/06/17 07:50:43;;;;;;;7.28;6.60;;;37.30;47.20;;;;;;5054399;28;20044;-73
2021/06/17 07:53:09;;;;;;;6.80;6.10;;;37.10;47.40;;;;;;5049355;28;20033;-72
2021/06/17 07:55:35;;;;;;;7.38;6.50;;;37.50;47.30;;;;;;5049808;28;20040;-72
2021/06/17 07:58:01;;;;;;;7.25;6.53;;;37.90;46.60;;;;;;5053181;28;20098;-72
2021/06/17 08:00:30;;;;;;;7.30;6.60;;;38.10;46.50;;;;;;5054637;28;20045;-72
2021/06/17 08:02:58;;;;;;;6.78;6.25;;;38.10;45.40;;;;;;5052699;28;20045;-71
2021/06/17 08:05:24;;;;;;;7.30;6.60;;;38.10;45.60;;;;;;5053443;28;20090;-72
2021/06/17 08:07:49;;;;;;;7.47;6.70;;;38.00;44.80;;;;;;5053075;28;20037;-72
2021/06/17 08:10:15;;;;;;;6.30;5.80;;;37.80;44.50;;;;;;5036337;28;20048;-72
2021/06/17 08:12:41;;;;;;;7.45;6.70;;;37.50;45.20;;;;;;5070915;28;20532;-72
2021/06/17 08:15:07;;;;;;;7.05;6.35;;;36.80;46.40;;;;;;5063055;28;20048;-72
2021/06/17 08:17:33;;;;;;;8.45;6.78;;;36.20;47.80;;;;;;5055430;28;20050;-72
2021/06/17 08:19:59;;;;;;;6.60;5.72;;;35.50;47.40;;;;;;5071493;28;20495;-72
2021/06/17 08:22:27;;;;;;;6.82;5.93;;;35.10;48.10;;;;;;5062779;28;20040;-72
2021/06/17 08:24:53;;;;;;;7.07;6.28;;;34.50;49.00;;;;;;5067797;28;20485;-72
2021/06/17 08:27:19;;;;;;;7.07;6.00;;;33.90;49.10;;;;;;5066101;28;20041;-72
2021/06/17 08:29:45;;;;;;;6.38;5.85;;;33.30;50.70;;;;;;5065528;28;20033;-66
2021/06/17 08:32:11;;;;;;;8.10;6.70;;;33.10;51.80;;;;;;5066548;28;20135;-68
2021/06/17 08:34:37;;;;;;;7.07;6.38;;;33.00;52.80;;;;;;5067617;28;20040;-68
2021/06/17 08:37:06;;;;;;;6.55;6.03;;;32.80;53.40;;;;;;5066640;28;20040;-68
2021/06/17 08:39:33;;;;;;;6.35;5.85;;;32.70;53.40;;;;;;5062180;28;20041;-68
2021/06/17 08:41:59;;;;;;;6.85;6.32;;;32.60;56.10;;;;;;5053397;28;20060;-68
2021/06/17 08:44:26;;;;;;;7.05;6.38;;;32.50;53.20;;;;;;5063834;28;20116;-68
2021/06/17 08:46:51;;;;;;;5.57;5.18;;;32.40;54.50;;;;;;5071991;28;20519;-68
2021/06/17 08:49:19;;;;;;;6.88;5.90;;;32.30;53.90;;;;;;5068007;28;20551;-68
2021/06/17 08:51:47;;;;;;;8.55;5.72;;;32.20;55.10;;;;;;5066155;28;20044;-68
2021/06/17 08:54:19;;;;;;;6.32;5.65;;;32.20;54.70;;;;;;5072367;28;20131;-68
2021/06/17 08:56:45;;;;;;;6.20;5.60;;;32.20;56.00;;;;;;5053273;28;20039;-68
2021/06/17 08:59:11;;;;;;;7.07;6.47;;;32.10;56.80;;;;;;5072380;28;20115;-68
2021/06/17 09:01:38;;;;;;;6.47;5.68;;;32.00;56.10;;;;;;5071524;28;20112;-68
2021/06/17 09:04:19;;;;;;;7.18;6.25;;;32.00;57.50;;;;;;5070512;28;20049;-68
2021/06/17 09:07:09;;;;;;;6.50;5.80;;;31.70;57.20;;;;;;5059895;28;20119;-68
2021/06/17 09:09:40;;;;;;;7.57;5.65;;;31.60;59.60;;;;;;5051750;28;20455;-68
2021/06/17 09:12:25;;;;;;;7.57;5.88;;;31.70;58.00;;;;;;5071115;28;20042;-68
2021/06/17 09:14:53;;;;;;;5.57;5.07;;;31.50;57.30;;;;;;5071601;28;20132;-68
2021/06/17 09:17:20;;;;;;;7.88;5.10;;;31.70;57.20;;;;;;5070760;28;20040;-68
2021/06/17 09:19:48;;;;;;;6.70;5.30;;;31.80;56.90;;;;;;5069836;28;20371;-68
2021/06/17 09:22:18;;;;;;;5.80;5.25;;;31.80;56.60;;;;;;5070402;28;20102;-68
2021/06/17 09:24:47;;;;;;;9.60;5.20;;;32.00;56.60;;;;;;5066129;28;20032;-68
2021/06/17 09:27:21;;;;;;;6.32;5.43;;;32.00;56.80;;;;;;5070103;28;20497;-68
2021/06/17 09:29:49;;;;;;;5.57;4.97;;;32.10;55.80;;;;;;5070721;28;20389;-68
2021/06/17 09:32:46;;;;;;;6.45;5.85;;;32.10;54.90;;;;;;5071761;28;20032;-68
2021/06/17 09:35:22;;;;;;;6.00;5.40;;;32.20;56.10;;;;;;5069700;28;20071;-68
2021/06/17 09:37:47;;;;;;;5.10;4.60;;;32.30;55.00;;;;;;5068927;28;20393;-68
2021/06/17 09:40:32;;;;;;;6.53;4.78;;;32.30;55.90;;;;;;5070692;28;20044;-68
2021/06/17 09:43:32;;;;;;;7.53;4.28;;;32.40;54.90;;;;;;5070237;28;20040;-78
2021/06/17 09:46:01;;;;;;;4.90;4.50;;;32.20;53.30;;;;;;5053522;28;20090;-78
2021/06/17 09:48:44;;;;;;;5.57;4.30;;;32.30;54.80;;;;;;5052828;28;20040;-78
2021/06/17 09:51:38;;;;;;;5.65;4.55;;;32.30;53.40;;;;;;5066837;28;20440;-78
2021/06/17 09:54:17;;;;;;;6.55;4.35;;;32.40;55.10;;;;;;5073198;28;20037;-74
2021/06/17 09:56:46;;;;;;;4.70;4.30;;;32.50;54.00;;;;;;5069788;28;20500;-77
2021/06/17 09:59:12;;;;;;;5.15;4.03;;;32.50;52.50;;;;;;5065454;28;20039;-77
2021/06/17 10:01:45;;;;;;;8.55;4.07;;;32.60;53.30;;;;;;5069401;28;20041;-78
2021/06/17 10:04:13;;;;;;;4.70;4.20;;;32.70;53.20;;;;;;5050562;28;20369;-77
2021/06/17 10:06:41;;;;;;;23.60;4.90;;;32.80;53.00;;;;;;5062774;28;20041;-78
2021/06/17 10:09:12;;;;;;;5.30;4.07;;;32.90;53.10;;;;;;5067833;28;20036;-76
2021/06/17 10:11:39;;;;;;;8.95;4.05;;;33.10;53.20;;;;;;5049569;28;20040;-77
2021/06/17 10:14:06;;;;;;;6.50;4.20;;;33.10;54.00;;;;;;5052056;28;20037;-77
2021/06/17 10:16:52;;;;;;;5.25;4.25;;;33.10;53.40;;;;;;5048662;28;20136;-77
2021/06/17 10:19:19;;;;;;;6.53;4.22;;;33.20;50.60;;;;;;5065807;28;20112;-76
2021/06/17 10:21:46;;;;;;;7.63;4.22;;;33.00;50.20;;;;;;5066675;28;20041;-77
2021/06/17 10:24:18;;;;;;;7.18;4.30;;;33.00;49.80;;;;;;5067639;28;20555;-76
2021/06/17 10:26:50;;;;;;;5.22;4.15;;;32.90;50.40;;;;;;5072477;28;20032;-76
2021/06/17 10:29:27;;;;;;;6.30;4.30;;;33.00;54.70;;;;;;5066554;28;20486;-76
2021/06/17 10:31:55;;;;;;;7.07;4.63;;;33.10;54.30;;;;;;5068981;28;20032;-77
2021/06/17 10:34:29;;;;;;;7.22;4.22;;;33.20;53.00;;;;;;5061866;28;20058;-77
2021/06/17 10:37:25;;;;;;;6.65;4.55;;;33.20;51.60;;;;;;5056270;28;20043;-77
2021/06/17 10:40:02;;;;;;;4.88;4.10;;;33.20;51.60;;;;;;5064212;28;20551;-77
2021/06/17 10:42:42;;;;;;;4.55;4.20;;;33.30;52.10;;;;;;5058243;28;20041;-78
2021/06/17 10:45:32;;;;;;;6.03;4.20;;;33.30;51.50;;;;;;5067489;28;20044;-78
2021/06/17 10:48:00;;;;;;;7.15;4.28;;;33.30;51.20;;;;;;5049636;28;20041;-78
2021/06/17 10:50:39;;;;;;;6.45;4.38;;;33.40;52.10;;;;;;5068306;28;20478;-78
2021/06/17 10:53:16;;;;;;;6.22;4.25;;;33.40;51.90;;;;;;5067485;28;20436;-78
2021/06/17 10:56:15;;;;;;;6.38;4.57;;;33.50;52.40;;;;;;5068897;28;20037;-78
2021/06/17 10:58:41;;;;;;;4.90;4.15;;;33.50;52.50;;;;;;5050897;28;20476;-76
2021/06/17 11:01:22;;;;;;;4.28;3.88;;;33.60;50.90;;;;;;5066636;28;20049;-76
2021/06/17 11:04:05;;;;;;;6.15;4.07;;;33.60;51.50;;;;;;5069433;28;20052;-76
2021/06/17 11:06:50;;;;;;;6.80;4.32;;;33.70;51.00;;;;;;5051153;28;20048;-76
2021/06/17 11:09:34;;;;;;;5.88;4.22;;;33.80;51.70;;;;;;5060257;28;20036;-79
2021/06/17 11:12:01;;;;;;;5.30;4.30;;;33.80;50.60;;;;;;5069010;28;20036;-77
2021/06/17 11:14:27;;;;;;;5.10;4.10;;;33.80;50.50;;;;;;5040296;28;20900;-76
2021/06/17 11:16:56;;;;;;;5.95;4.30;;;33.80;52.00;;;;;;5062887;28;20115;-76
2021/06/17 11:19:22;;;;;;;5.20;4.15;;;33.80;49.50;;;;;;5061511;28;20409;-74
2021/06/17 11:21:56;;;;;;;4.65;3.97;;;33.80;49.90;;;;;;5025051;28;20055;-72
2021/06/17 11:24:25;;;;;;;5.05;3.95;;;33.70;50.30;;;;;;5055474;28;20584;-72
2021/06/17 11:26:53;;;;;;;4.38;3.95;;;33.70;50.50;;;;;;5061221;28;20039;-70
2021/06/17 11:29:21;;;;;;;4.25;3.50;;;33.80;50.80;;;;;;5061220;28;20401;-72
2021/06/17 11:31:51;;;;;;;4.63;3.83;;;33.90;49.40;;;;;;5064615;28;20032;-69
2021/06/17 11:34:29;;;;;;;4.43;3.80;;;33.90;48.50;;;;;;5067334;28;20383;-69
2021/06/17 11:36:57;;;;;;;4.78;4.35;;;34.00;49.70;;;;;;5060338;28;20291;-69
2021/06/17 11:39:25;;;;;;;7.22;3.80;;;34.00;50.10;;;;;;5069206;28;20612;-72
2021/06/17 11:41:53;;;;;;;6.05;3.58;;;34.10;50.00;;;;;;5065262;28;20040;-71
2021/06/17 11:44:25;;;;;;;9.38;3.65;;;34.10;49.70;;;;;;5047461;28;20056;-71
2021/06/17 11:47:09;;;;;;;4.72;3.45;;;34.10;49.10;;;;;;5068895;28;20036;-71
2021/06/17 11:49:44;;;;;;;3.70;3.40;;;34.10;49.20;;;;;;5063908;28;20036;-69
2021/06/17 11:52:20;;;;;;;6.35;3.47;;;34.20;48.80;;;;;;5065700;28;20132;-69
2021/06/17 11:54:50;;;;;;;6.05;3.40;;;34.20;49.80;;;;;;5067604;28;20032;-69
2021/06/17 11:57:25;;;;;;;3.88;3.08;;;34.20;48.30;;;;;;5047453;28;20037;-69
2021/06/17 11:59:50;;;;;;;4.57;3.17;;;34.40;49.30;;;;;;5066029;28;20394;-69
2021/06/17 12:02:23;;;;;;;4.50;3.42;;;34.40;47.40;;;;;;5050817;28;20041;-70
2021/06/17 12:05:05;;;;;;;3.60;3.22;;;34.40;47.40;;;;;;5068221;28;20834;-69
2021/06/17 12:07:44;;;;;;;6.13;3.22;;;34.40;47.50;;;;;;5069102;28;20094;-66
2021/06/17 12:10:14;;;;;;;5.35;3.30;;;34.50;49.50;;;;;;5062972;28;20041;-64
2021/06/17 12:12:53;;;;;;;4.32;2.85;;;34.50;49.70;;;;;;5071112;28;20389;-64
2021/06/17 12:15:27;;;;;;;5.60;3.50;;;34.60;51.50;;;;;;5067550;28;20067;-65
2021/06/17 12:17:55;;;;;;;5.65;3.83;;;34.70;47.50;;;;;;5068268;28;20032;-65
2021/06/17 12:20:27;;;;;;;3.53;2.53;;;34.70;48.00;;;;;;5069631;28;20158;-64
2021/06/17 12:22:56;;;;;;;5.68;2.72;;;34.60;46.40;;;;;;5064505;28;20032;-64
2021/06/17 12:25:26;;;;;;;3.03;2.72;;;34.70;46.90;;;;;;5066871;28;20036;-65
2021/06/17 12:27:53;;;;;;;5.10;2.80;;;34.70;46.40;;;;;;5063072;28;20076;-65
2021/06/17 12:30:33;;;;;;;6.95;3.17;;;34.70;46.00;;;;;;5069150;28;20648;-65
2021/06/17 12:33:11;;;;;;;4.72;2.85;;;34.80;46.10;;;;;;5067582;28;20040;-66
2021/06/17 12:35:46;;;;;;;3.00;2.70;;;34.90;46.40;;;;;;5051501;28;20068;-66
2021/06/17 12:38:20;;;;;;;4.47;3.00;;;34.80;45.70;;;;;;5067854;28;20072;-64
2021/06/17 12:40:46;;;;;;;3.53;2.70;;;34.80;46.80;;;;;;5066204;28;20045;-64
2021/06/17 12:43:21;;;;;;;5.97;2.78;;;34.90;47.90;;;;;;5069964;28;20043;-64
2021/06/17 12:45:58;;;;;;;3.40;3.10;;;34.80;46.20;;;;;;5068759;28;20036;-64
2021/06/17 12:54:30;;;;;;;5.05;3.38;;;35.00;48.10;;;;;;5071793;28;20033;-66
2021/06/17 12:57:03;;;;;;;3.63;3.15;;;34.90;44.10;;;;;;5069405;28;20436;-66
2021/06/17 12:59:39;;;;;;;3.38;2.97;;;34.80;45.80;;;;;;5065886;28;20033;-67